Time;durP1;ratioP1;P1;durP2;ratioP2;P2;SDS_P1;SDS_P2;PMS_P1;PMS_P2;Temp;Humidity;BMP_temperature;BMP_pressure;BME280_temperature;BME280_humidity;BME280_pressure;Samples;Min_cycle;Max_cycle;Signal;HPM_P1;HPM_P2
2023/05/29 00:01:40;;;;;;;29.73;9.07;;;;;;;;;;6306104;28;20048;-53
2023/05/29 00:05:02;;;;;;;24.30;8.70;;;;;;;;;;6313025;28;20033;-58
2023/05/29 00:08:21;;;;;;;;;;;;;;;;;;6314090;28;20483;-57
2023/05/29 00:11:40;;;;;;;19.60;7.80;;;;;;;;;;6318443;28;20500;-57
2023/05/29 00:15:00;;;;;;;19.90;8.20;;;;;;;;;;6318073;28;20036;-56
2023/05/29 00:18:18;;;;;;;24.23;8.73;;;;;;;;;;6310614;28;20048;-58
2023/05/29 00:21:37;;;;;;;18.65;8.25;;;;;;;;;;6310791;28;20047;-51
2023/05/29 00:24:57;;;;;;;23.40;8.30;;;;;;;;;;6308937;28;20036;-55
2023/05/29 00:28:16;;;;;;;24.75;8.32;;;;;;;;;;6309844;28;20471;-55
2023/05/29 00:31:36;;;;;;;23.13;8.55;;;;;;;;;;6310888;28;20507;-53
2023/05/29 00:34:55;;;;;;;23.10;9.27;;;;;;;;;;6307819;28;20044;-59
2023/05/29 00:38:14;;;;;;;23.23;9.35;;;;;;;;;;6307466;28;20073;-56
2023/05/29 00:41:33;;;;;;;24.08;9.35;;;;;;;;;;6307449;28;20032;-49
2023/05/29 00:44:52;;;;;;;22.85;9.13;;;;;;;;;;6309048;28;20526;-56
2023/05/29 00:48:12;;;;;;;25.80;9.13;;;;;;;;;;6309770;28;20109;-56
2023/05/29 00:51:32;;;;;;;24.25;9.35;;;;;;;;;;6308949;28;20122;-56
2023/05/29 00:54:51;;;;;;;20.23;8.30;;;;;;;;;;6307736;28;20032;-59
2023/05/29 00:58:10;;;;;;;21.13;9.10;;;;;;;;;;6306553;28;20035;-57
2023/05/29 01:01:32;;;;;;;21.80;9.23;;;;;;;;;;6310424;28;20036;-58
2023/05/29 01:04:54;;;;;;;20.15;8.50;;;;;;;;;;6308750;28;20031;-57
2023/05/29 01:08:13;;;;;;;22.33;8.65;;;;;;;;;;6306205;28;20475;-58
2023/05/29 01:11:48;;;;;;;30.42;9.38;;;;;;;;;;6306272;28;20549;-54
2023/05/29 01:15:25;;;;;;;22.85;9.63;;;;;;;;;;6308118;28;20036;-55
2023/05/29 01:19:08;;;;;;;19.85;8.60;;;;;;;;;;6307313;28;20123;-54
2023/05/29 01:22:46;;;;;;;26.65;8.98;;;;;;;;;;6306787;28;20040;-50
2023/05/29 01:26:14;;;;;;;22.80;8.88;;;;;;;;;;6308019;28;20047;-56
2023/05/29 01:29:34;;;;;;;20.65;8.80;;;;;;;;;;6308868;28;20471;-51
2023/05/29 01:32:54;;;;;;;21.27;8.68;;;;;;;;;;6289468;28;20447;-58
2023/05/29 01:36:13;;;;;;;20.83;8.82;;;;;;;;;;6304537;28;20068;-55
2023/05/29 01:39:33;;;;;;;23.95;9.95;;;;;;;;;;6308028;28;20062;-58
2023/05/29 01:42:52;;;;;;;22.50;8.32;;;;;;;;;;6308556;28;20036;-56
2023/05/29 01:46:13;;;;;;;22.92;8.25;;;;;;;;;;6304975;28;20135;-55
2023/05/29 01:49:31;;;;;;;24.10;9.30;;;;;;;;;;6308467;28;20043;-55
2023/05/29 01:52:50;;;;;;;21.50;8.82;;;;;;;;;;6306877;28;20032;-58
2023/05/29 01:56:10;;;;;;;23.10;9.50;;;;;;;;;;6305496;28;20036;-57
2023/05/29 01:59:30;;;;;;;21.83;9.73;;;;;;;;;;6307400;28;20441;-58
2023/05/29 02:02:49;;;;;;;24.65;9.35;;;;;;;;;;6309064;28;20032;-57
2023/05/29 02:06:08;;;;;;;23.80;11.05;;;;;;;;;;6309056;28;20048;-58
2023/05/29 02:09:27;;;;;;;27.63;10.45;;;;;;;;;;6308651;28;20039;-56
2023/05/29 02:12:46;;;;;;;27.50;10.80;;;;;;;;;;6304621;28;20048;-56
2023/05/29 02:16:05;;;;;;;26.23;9.85;;;;;;;;;;6306759;28;20067;-56
2023/05/29 02:19:26;;;;;;;23.10;9.95;;;;;;;;;;6308219;28;20028;-51
2023/05/29 02:22:45;;;;;;;26.35;10.15;;;;;;;;;;6305306;28;20036;-59
2023/05/29 02:26:05;;;;;;;31.80;10.98;;;;;;;;;;6305465;28;20040;-57
2023/05/29 02:29:24;;;;;;;25.48;11.00;;;;;;;;;;6302841;28;20060;-55
2023/05/29 02:32:43;;;;;;;35.28;11.82;;;;;;;;;;6304929;28;20052;-59
2023/05/29 02:36:02;;;;;;;26.70;11.23;;;;;;;;;;6306237;28;20056;-58
2023/05/29 02:39:21;;;;;;;29.70;10.77;;;;;;;;;;6307262;28;20898;-53
2023/05/29 02:42:40;;;;;;;23.50;10.65;;;;;;;;;;6307695;28;20040;-56
2023/05/29 02:45:58;;;;;;;26.13;10.60;;;;;;;;;;6306103;28;20035;-57
2023/05/29 02:49:17;;;;;;;33.22;11.18;;;;;;;;;;6306291;28;20032;-54
2023/05/29 02:52:36;;;;;;;26.35;11.65;;;;;;;;;;6306225;28;20068;-54
2023/05/29 02:55:56;;;;;;;25.65;10.93;;;;;;;;;;6299513;28;20040;-58
2023/05/29 02:59:15;;;;;;;29.58;12.35;;;;;;;;;;6310990;28;20040;-57
2023/05/29 03:02:35;;;;;;;25.63;11.63;;;;;;;;;;6315780;28;20047;-53
2023/05/29 03:05:53;;;;;;;28.02;10.82;;;;;;;;;;6314317;28;20040;-57
2023/05/29 03:09:13;;;;;;;25.20;12.05;;;;;;;;;;6315006;28;20043;-56
2023/05/29 03:12:32;;;;;;;24.88;11.35;;;;;;;;;;6315342;28;20588;-58
2023/05/29 03:15:51;;;;;;;27.00;11.35;;;;;;;;;;6315495;28;20040;-56
2023/05/29 03:19:10;;;;;;;31.83;12.13;;;;;;;;;;6315639;28;20123;-56
2023/05/29 03:22:29;;;;;;;28.55;12.50;;;;;;;;;;6315034;28;20048;-58
2023/05/29 03:25:48;;;;;;;29.83;11.93;;;;;;;;;;6314531;28;20424;-57
2023/05/29 03:29:07;;;;;;;40.00;13.75;;;;;;;;;;6319425;28;20410;-59
2023/05/29 03:32:26;;;;;;;31.77;12.70;;;;;;;;;;6319917;28;20055;-58
2023/05/29 03:35:45;;;;;;;28.20;13.25;;;;;;;;;;6319717;28;20036;-57
2023/05/29 03:39:04;;;;;;;33.13;13.68;;;;;;;;;;6319641;28;20039;-58
2023/05/29 03:42:23;;;;;;;28.95;11.77;;;;;;;;;;6319622;28;20048;-58
2023/05/29 03:45:42;;;;;;;28.67;11.75;;;;;;;;;;6320127;28;20048;-54
2023/05/29 03:49:02;;;;;;;31.48;12.18;;;;;;;;;;6318966;28;20040;-57
2023/05/29 03:52:21;;;;;;;30.08;11.65;;;;;;;;;;6319011;28;20479;-58
2023/05/29 03:55:39;;;;;;;29.48;11.13;;;;;;;;;;6319488;28;20397;-57
2023/05/29 03:58:58;;;;;;;24.90;10.88;;;;;;;;;;6319712;28;20043;-57
2023/05/29 04:02:17;;;;;;;26.48;10.82;;;;;;;;;;6319548;28;20054;-59
2023/05/29 04:05:36;;;;;;;24.42;11.05;;;;;;;;;;6307626;28;20115;-59
2023/05/29 04:08:55;;;;;;;27.55;10.30;;;;;;;;;;6307830;28;20040;-56
2023/05/29 04:12:15;;;;;;;24.23;10.20;;;;;;;;;;6319040;28;20044;-58
2023/05/29 04:15:34;;;;;;;22.08;10.48;;;;;;;;;;6319272;28;20469;-53
2023/05/29 04:18:54;;;;;;;22.73;9.30;;;;;;;;;;6318828;28;20115;-50
2023/05/29 04:22:13;;;;;;;24.00;10.20;;;;;;;;;;6311424;28;20486;-51
2023/05/29 04:25:32;;;;;;;21.63;9.90;;;;;;;;;;6310481;28;20032;-53
2023/05/29 04:28:56;;;;;;;34.22;11.05;;;;;;;;;;6308942;28;20048;-50
2023/05/29 04:32:16;;;;;;;21.98;9.38;;;;;;;;;;6308585;28;20052;-48
2023/05/29 04:35:35;;;;;;;20.75;8.65;;;;;;;;;;6306468;28;20040;-56
2023/05/29 04:38:54;;;;;;;20.73;8.00;;;;;;;;;;6309812;28;20957;-57
2023/05/29 04:42:14;;;;;;;19.58;7.65;;;;;;;;;;6313254;28;20032;-57
2023/05/29 04:45:34;;;;;;;15.95;7.38;;;;;;;;;;6301991;28;20467;-63
2023/05/29 04:48:56;;;;;;;19.20;7.43;;;;;;;;;;6306505;28;20044;-59
2023/05/29 04:52:15;;;;;;;;;;;;;;;;;;6306302;28;20044;-58
2023/05/29 04:55:35;;;;;;;16.50;7.07;;;;;;;;;;6305881;28;20614;-53
2023/05/29 04:58:54;;;;;;;14.90;6.63;;;;;;;;;;6304246;28;20032;-50
2023/05/29 05:02:13;;;;;;;14.85;6.03;;;;;;;;;;6310418;28;20039;-54
2023/05/29 05:05:33;;;;;;;18.65;5.80;;;;;;;;;;6304488;28;20024;-51
2023/05/29 05:08:52;;;;;;;14.30;5.68;;;;;;;;;;6310662;28;20351;-58
2023/05/29 05:12:11;;;;;;;23.75;6.18;;;;;;;;;;6297514;28;20119;-58
2023/05/29 05:15:30;;;;;;;16.15;6.00;;;;;;;;;;6305884;28;20032;-51
2023/05/29 05:18:49;;;;;;;14.50;5.28;;;;;;;;;;6310767;28;20040;-48
2023/05/29 05:22:08;;;;;;;13.35;5.82;;;;;;;;;;6306303;28;20468;-63
2023/05/29 05:25:27;;;;;;;18.45;6.82;;;;;;;;;;6306036;28;20036;-59
2023/05/29 05:28:46;;;;;;;17.38;6.95;;;;;;;;;;6303845;28;20036;-52
2023/05/29 05:32:06;;;;;;;10.82;5.50;;;;;;;;;;6304339;28;20048;-56
2023/05/29 05:35:25;;;;;;;13.38;5.95;;;;;;;;;;6303789;28;20037;-58
2023/05/29 05:38:44;;;;;;;12.73;5.28;;;;;;;;;;6307013;28;20135;-54
2023/05/29 05:42:03;;;;;;;10.90;5.40;;;;;;;;;;6304291;28;20044;-55
2023/05/29 05:45:22;;;;;;;13.82;5.28;;;;;;;;;;6304643;28;20032;-58
2023/05/29 05:48:41;;;;;;;9.35;5.28;;;;;;;;;;6302417;28;20422;-56
2023/05/29 05:52:00;;;;;;;11.73;5.10;;;;;;;;;;6302466;28;20135;-57
2023/05/29 05:55:20;;;;;;;11.65;5.13;;;;;;;;;;6307226;28;20039;-58
2023/05/29 05:58:38;;;;;;;11.18;4.60;;;;;;;;;;6310457;28;20048;-56
2023/05/29 06:01:57;;;;;;;15.82;5.30;;;;;;;;;;6306412;28;20111;-58
2023/05/29 06:05:17;;;;;;;12.60;5.45;;;;;;;;;;6304148;28;20032;-55
2023/05/29 06:08:37;;;;;;;12.45;5.15;;;;;;;;;;6304172;28;20090;-51
2023/05/29 06:11:56;;;;;;;14.80;5.47;;;;;;;;;;6302250;28;20124;-58
2023/05/29 06:15:15;;;;;;;13.10;5.70;;;;;;;;;;6305969;28;20032;-55
2023/05/29 06:18:34;;;;;;;12.00;5.13;;;;;;;;;;6300781;28;20036;-56
2023/05/29 06:21:53;;;;;;;12.00;5.43;;;;;;;;;;6301189;28;20036;-55
2023/05/29 06:25:12;;;;;;;13.45;5.90;;;;;;;;;;6303187;28;20036;-57
2023/05/29 06:28:31;;;;;;;14.10;5.50;;;;;;;;;;6303475;28;20040;-57
2023/05/29 06:31:50;;;;;;;10.73;5.75;;;;;;;;;;6303222;28;20267;-55
2023/05/29 06:35:09;;;;;;;12.50;5.65;;;;;;;;;;6305584;28;20058;-57
2023/05/29 06:38:28;;;;;;;10.25;5.35;;;;;;;;;;6303950;28;20040;-59
2023/05/29 06:41:47;;;;;;;10.70;4.70;;;;;;;;;;6302768;28;20044;-54
2023/05/29 06:45:07;;;;;;;11.43;4.45;;;;;;;;;;6302873;28;20032;-56
2023/05/29 06:48:26;;;;;;;9.18;5.22;;;;;;;;;;6301806;28;20044;-56
2023/05/29 06:51:44;;;;;;;12.27;4.50;;;;;;;;;;6301650;28;20036;-55
2023/05/29 06:55:04;;;;;;;9.50;4.20;;;;;;;;;;6301967;28;20032;-57
2023/05/29 06:58:23;;;;;;;11.50;4.03;;;;;;;;;;6304574;28;20040;-57
2023/05/29 07:01:42;;;;;;;8.98;4.30;;;;;;;;;;6301838;28;20047;-58
2023/05/29 07:04:46;;;;;;;12.27;5.28;;;;;;;;;;6307794;28;20135;-56
2023/05/29 07:07:46;;;;;;;9.55;3.95;;;;;;;;;;6308389;28;20054;-58
2023/05/29 07:10:48;;;;;;;12.73;4.68;;;;;;;;;;6311367;28;20165;-59
2023/05/29 07:13:48;;;;;;;9.83;4.93;;;;;;;;;;6311932;28;20467;-56
2023/05/29 07:16:49;;;;;;;11.13;4.65;;;;;;;;;;6310351;28;20292;-55
2023/05/29 07:19:49;;;;;;;10.15;4.20;;;;;;;;;;6307718;28;20044;-58
2023/05/29 07:22:50;;;;;;;11.57;4.50;;;;;;;;;;6309011;28;20055;-55
2023/05/29 07:25:50;;;;;;;11.38;4.53;;;;;;;;;;6308551;28;20047;-57
2023/05/29 07:28:51;;;;;;;11.48;4.68;;;;;;;;;;6309486;28;20604;-55
2023/05/29 07:31:52;;;;;;;8.95;4.57;;;;;;;;;;6309650;28;20045;-58
2023/05/29 07:34:53;;;;;;;10.77;4.90;;;;;;;;;;6309080;28;20494;-57
2023/05/29 07:37:54;;;;;;;11.88;4.88;;;;;;;;;;6312657;28;20041;-58
2023/05/29 07:40:54;;;;;;;13.57;4.80;;;;;;;;;;6309988;28;20392;-57
2023/05/29 07:43:55;;;;;;;15.57;5.35;;;;;;;;;;6306763;28;20358;-59
2023/05/29 07:46:56;;;;;;;12.65;4.95;;;;;;;;;;6309862;28;20139;-57
2023/05/29 07:49:57;;;;;;;9.73;4.50;;;;;;;;;;6308556;28;20044;-58
2023/05/29 07:52:58;;;;;;;13.55;5.13;;;;;;;;;;6310095;28;20109;-57
2023/05/29 07:55:58;;;;;;;15.13;4.73;;;;;;;;;;6309445;28;20151;-57
2023/05/29 07:58:59;;;;;;;14.07;4.82;;;;;;;;;;6308837;28;20550;-56
2023/05/29 08:02:02;;;;;;;10.60;4.53;;;;;;;;;;6303373;28;20052;-59
2023/05/29 08:05:04;;;;;;;11.60;4.78;;;;;;;;;;6305043;28;20491;-59
2023/05/29 08:08:04;;;;;;;13.77;5.70;;;;;;;;;;6303664;28;20052;-56
2023/05/29 08:11:06;;;;;;;18.33;5.40;;;;;;;;;;6304524;28;20502;-51
2023/05/29 08:14:07;;;;;;;16.85;6.43;;;;;;;;;;6303720;28;20079;-58
2023/05/29 08:17:08;;;;;;;15.98;7.03;;;;;;;;;;6306093;28;20732;-58
2023/05/29 08:20:10;;;;;;;21.13;6.97;;;;;;;;;;6305591;28;20044;-58
2023/05/29 08:23:10;;;;;;;18.52;7.05;;;;;;;;;;6312706;28;20086;-58
2023/05/29 08:26:12;;;;;;;19.70;6.67;;;;;;;;;;6305756;28;20052;-57
2023/05/29 08:29:13;;;;;;;11.55;5.38;;;;;;;;;;6306113;28;20086;-57
2023/05/29 08:32:14;;;;;;;17.92;6.38;;;;;;;;;;6308889;28;20048;-56
2023/05/29 08:35:16;;;;;;;18.50;6.38;;;;;;;;;;6306858;28;20044;-56
2023/05/29 08:38:16;;;;;;;17.33;6.20;;;;;;;;;;6307329;28;20485;-58
2023/05/29 08:41:24;;;;;;;11.93;4.53;;;;;;;;;;6305406;28;20044;-53
2023/05/29 08:44:26;;;;;;;11.80;5.05;;;;;;;;;;6302896;28;20048;-53
2023/05/29 08:47:29;;;;;;;13.13;4.43;;;;;;;;;;6307937;28;20056;-56
2023/05/29 08:50:29;;;;;;;21.95;6.28;;;;;;;;;;6307937;28;20039;-57
2023/05/29 08:53:32;;;;;;;9.43;4.23;;;;;;;;;;6306916;28;20757;-55
2023/05/29 08:56:34;;;;;;;13.48;4.88;;;;;;;;;;6309766;28;20475;-54
2023/05/29 08:59:37;;;;;;;10.80;3.92;;;;;;;;;;6308213;28;20139;-55
2023/05/29 09:02:43;;;;;;;10.40;4.18;;;;;;;;;;6302311;28;20616;-56
2023/05/29 09:05:44;;;;;;;9.20;4.10;;;;;;;;;;6307669;28;20518;-55
2023/05/29 09:12:42;;;;;;;12.52;4.28;;;;;;;;;;6303147;28;20463;-56
2023/05/29 09:15:43;;;;;;;11.13;4.13;;;;;;;;;;6303863;28;20040;-54
2023/05/29 09:18:46;;;;;;;13.00;4.43;;;;;;;;;;6306087;28;20471;-56
2023/05/29 09:21:47;;;;;;;11.10;4.28;;;;;;;;;;6309012;28;20036;-52
2023/05/29 09:24:50;;;;;;;9.35;3.90;;;;;;;;;;6306985;28;20067;-57
2023/05/29 09:28:03;;;;;;;13.57;4.75;;;;;;;;;;6305775;28;20055;-56
2023/05/29 09:31:14;;;;;;;10.70;4.60;;;;;;;;;;6308400;28;20102;-54
2023/05/29 09:34:15;;;;;;;9.07;4.35;;;;;;;;;;6304070;28;20048;-57
2023/05/29 09:37:21;;;;;;;14.55;5.45;;;;;;;;;;6304822;28;20047;-57
2023/05/29 09:40:22;;;;;;;14.52;5.20;;;;;;;;;;6303577;28;20056;-54
2023/05/29 09:43:23;;;;;;;18.53;5.93;;;;;;;;;;6306605;28;20101;-56
2023/05/29 09:46:24;;;;;;;13.95;5.38;;;;;;;;;;6309604;28;20380;-57
2023/05/29 09:49:26;;;;;;;13.93;5.00;;;;;;;;;;6312480;28;20047;-54
2023/05/29 09:52:30;;;;;;;13.38;5.65;;;;;;;;;;6314386;28;20040;-57
2023/05/29 09:55:32;;;;;;;13.18;5.30;;;;;;;;;;6308566;28;20129;-58
2023/05/29 09:58:33;;;;;;;14.18;5.28;;;;;;;;;;6302037;28;20097;-52
2023/05/29 10:01:34;;;;;;;9.88;5.22;;;;;;;;;;6305650;28;20055;-56
2023/05/29 10:04:35;;;;;;;16.27;5.17;;;;;;;;;;6303795;28;20044;-59
2023/05/29 10:07:37;;;;;;;11.60;4.95;;;;;;;;;;6305149;28;20055;-58
2023/05/29 10:10:43;;;;;;;12.32;5.50;;;;;;;;;;6302401;28;20043;-56
2023/05/29 10:13:48;;;;;;;10.55;4.82;;;;;;;;;;6306163;28;20178;-56
2023/05/29 10:16:50;;;;;;;18.38;4.93;;;;;;;;;;6305126;28;20242;-55
2023/05/29 10:19:53;;;;;;;9.27;4.78;;;;;;;;;;6304370;28;20100;-55
2023/05/29 10:22:56;;;;;;;12.85;5.05;;;;;;;;;;6307557;28;20415;-58
2023/05/29 10:26:06;;;;;;;11.32;4.93;;;;;;;;;;6301643;28;20044;-54
2023/05/29 10:29:27;;;;;;;11.43;4.63;;;;;;;;;;6302732;28;20063;-54
2023/05/29 10:32:50;;;;;;;14.30;4.70;;;;;;;;;;6306051;28;21275;-56
2023/05/29 10:36:05;;;;;;;13.30;5.22;;;;;;;;;;6303176;28;20358;-56
2023/05/29 10:39:07;;;;;;;9.75;4.32;;;;;;;;;;6305530;28;20145;-58
2023/05/29 10:42:47;;;;;;;11.95;4.70;;;;;;;;;;6305171;28;20043;-56
2023/05/29 10:45:49;;;;;;;10.45;4.55;;;;;;;;;;6303945;28;20048;-55
2023/05/29 10:48:50;;;;;;;11.75;5.00;;;;;;;;;;6301680;28;20040;-54
2023/05/29 10:51:51;;;;;;;9.47;4.93;;;;;;;;;;6305414;28;20106;-59
2023/05/29 10:54:54;;;;;;;12.27;4.60;;;;;;;;;;6303884;28;20546;-59
2023/05/29 10:57:55;;;;;;;11.15;5.05;;;;;;;;;;6305650;28;20051;-55
2023/05/29 11:00:57;;;;;;;10.73;5.20;;;;;;;;;;6301925;28;20402;-57
2023/05/29 11:04:15;;;;;;;13.32;5.38;;;;;;;;;;6304916;28;20119;-55
2023/05/29 11:07:35;;;;;;;13.90;4.93;;;;;;;;;;6303295;28;20257;-53
2023/05/29 11:10:48;;;;;;;12.80;5.10;;;;;;;;;;6304605;28;20774;-55
2023/05/29 11:13:53;;;;;;;13.90;5.40;;;;;;;;;;6306466;28;20470;-55
2023/05/29 11:16:54;;;;;;;16.42;5.15;;;;;;;;;;6304122;28;20080;-54
2023/05/29 11:19:56;;;;;;;8.63;4.93;;;;;;;;;;6305431;28;20044;-55
2023/05/29 11:22:59;;;;;;;13.55;5.25;;;;;;;;;;6305325;28;20134;-53
2023/05/29 11:26:01;;;;;;;31.23;6.97;;;;;;;;;;6302352;28;20459;-55
2023/05/29 11:29:06;;;;;;;15.68;6.03;;;;;;;;;;6302513;28;20048;-57
2023/05/29 11:32:13;;;;;;;15.85;5.38;;;;;;;;;;6303910;28;20058;-57
2023/05/29 11:35:15;;;;;;;30.75;7.30;;;;;;;;;;6303928;28;20043;-54
2023/05/29 11:38:15;;;;;;;13.37;5.77;;;;;;;;;;6304682;28;20546;-53
2023/05/29 11:41:17;;;;;;;13.10;5.65;;;;;;;;;;6305404;28;20123;-55
2023/05/29 11:44:17;;;;;;;13.07;5.50;;;;;;;;;;6303582;28;20509;-53
2023/05/29 11:47:19;;;;;;;14.63;6.30;;;;;;;;;;6303294;28;20135;-55
2023/05/29 11:50:21;;;;;;;16.05;6.20;;;;;;;;;;6307696;28;20067;-55
2023/05/29 11:53:22;;;;;;;13.48;5.28;;;;;;;;;;6307020;28;20529;-52
2023/05/29 11:56:30;;;;;;;11.17;5.33;;;;;;;;;;6306055;28;20185;-53
2023/05/29 11:59:32;;;;;;;12.52;5.63;;;;;;;;;;6307211;28;20546;-53
2023/05/29 12:02:32;;;;;;;;;;;;;;;;;;6309560;28;20055;-56
2023/05/29 12:05:55;;;;;;;10.73;5.15;;;;;;;;;;6307288;28;20273;-52
2023/05/29 12:08:55;;;;;;;13.70;5.53;;;;;;;;;;6309716;28;20142;-56
2023/05/29 12:12:03;;;;;;;13.37;6.33;;;;;;;;;;6308678;28;20040;-57
2023/05/29 12:15:06;;;;;;;12.55;5.55;;;;;;;;;;6308736;28;20044;-55
2023/05/29 12:18:07;;;;;;;10.88;5.78;;;;;;;;;;6308849;28;20753;-55
2023/05/29 12:21:08;;;;;;;17.65;6.80;;;;;;;;;;6306654;28;20070;-54
2023/05/29 12:24:09;;;;;;;14.70;5.80;;;;;;;;;;6306393;28;20043;-54
2023/05/29 12:27:10;;;;;;;15.13;5.63;;;;;;;;;;6306540;28;20473;-55
2023/05/29 12:30:14;;;;;;;15.00;5.57;;;;;;;;;;6284017;28;20084;-54
2023/05/29 12:33:32;;;;;;;12.27;5.45;;;;;;;;;;6304756;28;20139;-53
2023/05/29 12:36:33;;;;;;;17.23;6.60;;;;;;;;;;6308805;28;20054;-56
2023/05/29 12:39:34;;;;;;;12.93;6.10;;;;;;;;;;6305183;28;20043;-54
2023/05/29 12:42:37;;;;;;;16.00;5.88;;;;;;;;;;6307400;28;20048;-53
2023/05/29 12:45:38;;;;;;;11.60;6.07;;;;;;;;;;6310694;28;20560;-57
2023/05/29 12:48:39;;;;;;;15.30;6.23;;;;;;;;;;6302231;28;20056;-57
2023/05/29 12:51:44;;;;;;;13.73;5.93;;;;;;;;;;6300186;28;20047;-58
2023/05/29 12:54:44;;;;;;;13.40;6.13;;;;;;;;;;6305691;28;20075;-55
2023/05/29 12:57:46;;;;;;;13.77;6.30;;;;;;;;;;6306358;28;20040;-55
2023/05/29 13:00:47;;;;;;;12.63;5.82;;;;;;;;;;6304297;28;20040;-58
2023/05/29 13:03:47;;;;;;;14.80;6.83;;;;;;;;;;6308222;28;20527;-54
2023/05/29 13:06:48;;;;;;;16.60;7.40;;;;;;;;;;6313627;28;20051;-57
2023/05/29 13:09:49;;;;;;;16.90;6.57;;;;;;;;;;6306788;28;20048;-54
2023/05/29 13:12:53;;;;;;;12.97;6.80;;;;;;;;;;6304581;28;20040;-57
2023/05/29 13:15:54;;;;;;;13.88;6.40;;;;;;;;;;6305047;28;20509;-54
2023/05/29 13:18:55;;;;;;;15.82;7.35;;;;;;;;;;6307168;28;20075;-59
2023/05/29 13:21:55;;;;;;;15.67;6.60;;;;;;;;;;6304794;28;20062;-56
2023/05/29 13:24:59;;;;;;;17.30;6.90;;;;;;;;;;6303995;28;20443;-57
2023/05/29 13:28:00;;;;;;;15.32;6.45;;;;;;;;;;6306143;28;20041;-56
2023/05/29 13:31:01;;;;;;;14.57;6.53;;;;;;;;;;6310839;28;20808;-54
2023/05/29 13:34:01;;;;;;;16.83;6.93;;;;;;;;;;6301484;28;20400;-55
2023/05/29 13:37:02;;;;;;;13.43;6.27;;;;;;;;;;6311856;28;20503;-56
2023/05/29 13:40:04;;;;;;;15.13;6.77;;;;;;;;;;6298079;28;20051;-58
2023/05/29 13:43:05;;;;;;;13.55;6.20;;;;;;;;;;6293449;28;20044;-57
2023/05/29 13:46:05;;;;;;;15.13;6.13;;;;;;;;;;6296659;28;20159;-57
2023/05/29 13:49:09;;;;;;;12.73;6.10;;;;;;;;;;6291976;28;20052;-58
2023/05/29 13:52:09;;;;;;;12.23;6.05;;;;;;;;;;6292897;28;20040;-56
2023/05/29 13:55:10;;;;;;;12.60;6.00;;;;;;;;;;6295094;28;20056;-57
2023/05/29 13:58:11;;;;;;;13.27;6.30;;;;;;;;;;6293724;28;20102;-57
2023/05/29 14:01:14;;;;;;;12.57;5.97;;;;;;;;;;6294648;28;20390;-57
2023/05/29 14:04:15;;;;;;;11.23;5.70;;;;;;;;;;6293572;28;20859;-58
2023/05/29 14:07:15;;;;;;;10.97;5.53;;;;;;;;;;6295994;28;20498;-56
2023/05/29 14:10:16;;;;;;;12.60;5.73;;;;;;;;;;6298179;28;20050;-56
2023/05/29 14:13:18;;;;;;;11.88;5.95;;;;;;;;;;6293889;28;20514;-59
2023/05/29 14:16:19;;;;;;;16.20;5.87;;;;;;;;;;6295835;28;20043;-53
2023/05/29 14:19:24;;;;;;;13.80;5.80;;;;;;;;;;6291533;28;20268;-56
2023/05/29 14:22:24;;;;;;;13.50;5.88;;;;;;;;;;6291428;28;20311;-60
2023/05/29 14:25:25;;;;;;;14.13;5.43;;;;;;;;;;6296721;28;20036;-58
2023/05/29 14:28:25;;;;;;;12.07;5.77;;;;;;;;;;6296766;28;20072;-59
2023/05/29 14:31:26;;;;;;;10.90;5.47;;;;;;;;;;6296486;28;21219;-58
2023/05/29 14:34:27;;;;;;;14.07;5.20;;;;;;;;;;6294669;28;20191;-59
2023/05/29 14:37:28;;;;;;;10.95;5.50;;;;;;;;;;6291667;28;20056;-53
2023/05/29 14:40:30;;;;;;;13.33;5.57;;;;;;;;;;6296776;28;20040;-51
2023/05/29 14:43:31;;;;;;;8.50;5.00;;;;;;;;;;6303499;28;20580;-53
2023/05/29 14:46:32;;;;;;;10.73;6.17;;;;;;;;;;6298283;28;20044;-58
2023/05/29 14:49:33;;;;;;;11.53;5.17;;;;;;;;;;6296563;28;20072;-59
2023/05/29 14:52:34;;;;;;;15.88;5.85;;;;;;;;;;6293241;28;20383;-59
2023/05/29 14:55:38;;;;;;;11.07;5.35;;;;;;;;;;6295885;28;20426;-59
2023/05/29 14:58:38;;;;;;;14.52;5.80;;;;;;;;;;6307289;28;20047;-57
2023/05/29 15:01:39;;;;;;;10.23;5.63;;;;;;;;;;6306470;28;20040;-55
2023/05/29 15:04:39;;;;;;;15.67;6.00;;;;;;;;;;6303732;28;20040;-51
2023/05/29 15:07:40;;;;;;;11.40;5.13;;;;;;;;;;6303624;28;20064;-60
2023/05/29 15:10:41;;;;;;;11.77;5.38;;;;;;;;;;6315311;28;20052;-58
2023/05/29 15:13:42;;;;;;;9.27;5.20;;;;;;;;;;6313360;28;20048;-52
2023/05/29 15:16:43;;;;;;;14.90;5.53;;;;;;;;;;6315401;28;20511;-49
2023/05/29 15:19:44;;;;;;;13.52;5.55;;;;;;;;;;6315129;28;20068;-52
2023/05/29 15:22:45;;;;;;;12.87;5.73;;;;;;;;;;6314294;28;20127;-48
2023/05/29 15:25:45;;;;;;;10.43;5.70;;;;;;;;;;6319907;28;20048;-58
2023/05/29 15:28:46;;;;;;;12.67;5.80;;;;;;;;;;6320329;28;20094;-52
2023/05/29 15:31:47;;;;;;;11.47;4.50;;;;;;;;;;6312030;28;20045;-52
2023/05/29 15:34:47;;;;;;;9.70;5.13;;;;;;;;;;6318637;28;20487;-48
2023/05/29 15:37:48;;;;;;;9.30;4.93;;;;;;;;;;6319851;28;20036;-58
2023/05/29 15:40:50;;;;;;;10.57;5.07;;;;;;;;;;6319057;28;20140;-57
2023/05/29 15:43:51;;;;;;;12.18;5.28;;;;;;;;;;6319376;28;20071;-58
2023/05/29 15:46:51;;;;;;;11.20;4.93;;;;;;;;;;6307694;28;20052;-56
2023/05/29 15:49:52;;;;;;;12.93;5.70;;;;;;;;;;6317031;28;20632;-47
2023/05/29 15:52:53;;;;;;;10.43;5.20;;;;;;;;;;6313928;28;20300;-48
2023/05/29 15:55:54;;;;;;;14.20;5.47;;;;;;;;;;6308862;28;20047;-49
2023/05/29 15:58:54;;;;;;;14.10;5.10;;;;;;;;;;6308367;28;20077;-52
2023/05/29 16:01:55;;;;;;;10.73;4.80;;;;;;;;;;6309096;28;20403;-50
2023/05/29 16:04:56;;;;;;;11.47;5.07;;;;;;;;;;6308316;28;20143;-49
2023/05/29 16:07:56;;;;;;;9.35;5.32;;;;;;;;;;6309665;28;20040;-49
2023/05/29 16:10:57;;;;;;;11.90;5.00;;;;;;;;;;6310135;28;20411;-50
2023/05/29 16:13:58;;;;;;;10.40;5.18;;;;;;;;;;6307922;28;20051;-51
2023/05/29 16:16:59;;;;;;;11.10;5.20;;;;;;;;;;6314389;28;20044;-49
2023/05/29 16:19:59;;;;;;;9.02;4.82;;;;;;;;;;6310164;28;20463;-49
2023/05/29 16:23:00;;;;;;;12.43;4.90;;;;;;;;;;6307278;28;20593;-50
2023/05/29 16:26:01;;;;;;;9.30;4.50;;;;;;;;;;6307445;28;20052;-51
2023/05/29 16:29:02;;;;;;;9.50;4.83;;;;;;;;;;6306308;28;20040;-50
2023/05/29 16:32:03;;;;;;;;;;;;;;;;;;6306362;28;20123;-49
2023/05/29 16:35:04;;;;;;;13.10;4.67;;;;;;;;;;6289534;28;19920;-49
2023/05/29 16:38:05;;;;;;;11.23;4.72;;;;;;;;;;6309712;28;20082;-50
2023/05/29 16:41:06;;;;;;;9.98;4.88;;;;;;;;;;6307822;28;20078;-50
2023/05/29 16:44:07;;;;;;;9.33;4.60;;;;;;;;;;6307020;28;20091;-50
2023/05/29 16:47:07;;;;;;;15.37;5.20;;;;;;;;;;6308162;28;20315;-50
2023/05/29 16:50:09;;;;;;;11.50;4.47;;;;;;;;;;6305644;28;20122;-48
2023/05/29 16:53:09;;;;;;;11.27;4.68;;;;;;;;;;6305193;28;20052;-52
2023/05/29 16:56:10;;;;;;;11.33;5.40;;;;;;;;;;6308508;28;20509;-48
2023/05/29 16:59:11;;;;;;;9.53;4.33;;;;;;;;;;6305376;28;20531;-48
2023/05/29 17:02:13;;;;;;;12.13;4.78;;;;;;;;;;6310620;28;20631;-48
2023/05/29 17:05:14;;;;;;;11.05;4.55;;;;;;;;;;6315041;28;20048;-49
2023/05/29 17:08:14;;;;;;;8.85;4.45;;;;;;;;;;6306927;28;20119;-49
2023/05/29 17:11:15;;;;;;;9.77;5.07;;;;;;;;;;6307556;28;20477;-48
2023/05/29 17:14:16;;;;;;;9.60;4.78;;;;;;;;;;6308608;28;20079;-51
2023/05/29 17:17:17;;;;;;;11.50;4.47;;;;;;;;;;6308340;28;20054;-49
2023/05/29 17:20:17;;;;;;;10.73;4.53;;;;;;;;;;6315074;28;20082;-52
2023/05/29 17:23:18;;;;;;;11.13;4.63;;;;;;;;;;6304853;28;20052;-49
2023/05/29 17:26:19;;;;;;;11.63;4.85;;;;;;;;;;6307371;28;20068;-49
2023/05/29 17:29:19;;;;;;;10.80;4.87;;;;;;;;;;6306776;28;20058;-48
2023/05/29 17:32:20;;;;;;;12.40;5.10;;;;;;;;;;6308715;28;20078;-50
2023/05/29 17:35:21;;;;;;;9.33;4.77;;;;;;;;;;6308057;28;20048;-47
2023/05/29 17:38:22;;;;;;;11.82;4.78;;;;;;;;;;6306732;28;20056;-47
2023/05/29 17:41:22;;;;;;;10.17;5.17;;;;;;;;;;6306837;28;20418;-48
2023/05/29 17:44:23;;;;;;;11.77;4.90;;;;;;;;;;6313190;28;20056;-47
2023/05/29 17:47:24;;;;;;;10.30;5.47;;;;;;;;;;6306436;28;20364;-47
2023/05/29 17:50:25;;;;;;;11.33;4.80;;;;;;;;;;6303842;28;20566;-48
2023/05/29 17:53:26;;;;;;;9.40;4.53;;;;;;;;;;6304595;28;20047;-50
2023/05/29 17:56:27;;;;;;;;;;;;;;;;;;6301871;28;20131;-49
2023/05/29 17:59:31;;;;;;;9.52;4.75;;;;;;;;;;6306164;28;20370;-53
2023/05/29 18:02:32;;;;;;;13.52;5.20;;;;;;;;;;6288733;28;20043;-50
2023/05/29 18:05:32;;;;;;;11.83;5.57;;;;;;;;;;6294102;28;20091;-50
2023/05/29 18:08:35;;;;;;;14.53;5.67;;;;;;;;;;6283348;28;20052;-56
2023/05/29 18:11:38;;;;;;;13.73;5.85;;;;;;;;;;6283519;28;20056;-50
2023/05/29 18:14:39;;;;;;;13.02;5.50;;;;;;;;;;6275805;28;20133;-56
2023/05/29 18:17:40;;;;;;;13.63;5.50;;;;;;;;;;6274893;28;20041;-49
2023/05/29 18:20:40;;;;;;;12.90;5.35;;;;;;;;;;6278246;28;20091;-58
2023/05/29 18:23:43;;;;;;;11.43;5.13;;;;;;;;;;6278694;28;20052;-54
2023/05/29 18:26:44;;;;;;;15.18;6.15;;;;;;;;;;6280394;28;20131;-55
2023/05/29 18:29:45;;;;;;;12.03;6.67;;;;;;;;;;6281241;28;20550;-53
2023/05/29 18:32:46;;;;;;;13.68;7.20;;;;;;;;;;6281924;28;20086;-54
2023/05/29 18:35:46;;;;;;;18.00;6.00;;;;;;;;;;6282597;28;20430;-58
2023/05/29 18:38:49;;;;;;;16.83;5.67;;;;;;;;;;6280702;28;20052;-56